sensor_id;sensor_type;location;lat;lon;timestamp;P1;durP1;ratioP1;P2;durP2;ratioP2
47251;SDS011;32991;51.374;11.586;2023-05-06T00:00:57;11.63;;;10.35;;
47251;SDS011;32991;51.374;11.586;2023-05-06T00:03:23;13.27;;;11.63;;
47251;SDS011;32991;51.374;11.586;2023-05-06T00:05:50;12.57;;;11.27;;
47251;SDS011;32991;51.374;11.586;2023-05-06T00:08:17;12.55;;;11.27;;
47251;SDS011;32991;51.374;11.586;2023-05-06T00:10:44;13.68;;;11.27;;
47251;SDS011;32991;51.374;11.586;2023-05-06T00:13:10;13.63;;;12.18;;
47251;SDS011;32991;51.374;11.586;2023-05-06T00:15:37;16.27;;;12.90;;
47251;SDS011;32991;51.374;11.586;2023-05-06T00:18:04;16.48;;;12.40;;
47251;SDS011;32991;51.374;11.586;2023-05-06T00:20:31;16.08;;;12.02;;
47251;SDS011;32991;51.374;11.586;2023-05-06T00:22:58;14.30;;;12.90;;
47251;SDS011;32991;51.374;11.586;2023-05-06T00:25:24;14.95;;;13.13;;
47251;SDS011;32991;51.374;11.586;2023-05-06T00:27:51;16.98;;;13.50;;
47251;SDS011;32991;51.374;11.586;2023-05-06T00:30:18;18.17;;;13.68;;
47251;SDS011;32991;51.374;11.586;2023-05-06T00:32:44;15.30;;;13.43;;
47251;SDS011;32991;51.374;11.586;2023-05-06T00:35:11;17.23;;;13.65;;
47251;SDS011;32991;51.374;11.586;2023-05-06T00:37:38;15.93;;;13.52;;
47251;SDS011;32991;51.374;11.586;2023-05-06T00:40:04;15.93;;;14.13;;
47251;SDS011;32991;51.374;11.586;2023-05-06T00:42:32;16.55;;;14.57;;
47251;SDS011;32991;51.374;11.586;2023-05-06T00:44:58;24.88;;;14.02;;
47251;SDS011;32991;51.374;11.586;2023-05-06T00:47:24;20.25;;;14.18;;
47251;SDS011;32991;51.374;11.586;2023-05-06T00:49:51;16.27;;;13.93;;
47251;SDS011;32991;51.374;11.586;2023-05-06T00:52:18;16.17;;;14.02;;
47251;SDS011;32991;51.374;11.586;2023-05-06T00:54:45;17.85;;;14.70;;
47251;SDS011;32991;51.374;11.586;2023-05-06T00:57:11;16.33;;;13.98;;
47251;SDS011;32991;51.374;11.586;2023-05-06T00:59:38;16.70;;;13.75;;
47251;SDS011;32991;51.374;11.586;2023-05-06T01:02:04;15.93;;;14.18;;
47251;SDS011;32991;51.374;11.586;2023-05-06T01:04:31;15.75;;;14.00;;
47251;SDS011;32991;51.374;11.586;2023-05-06T01:07:02;17.42;;;13.75;;
47251;SDS011;32991;51.374;11.586;2023-05-06T01:09:53;17.30;;;14.90;;
47251;SDS011;32991;51.374;11.586;2023-05-06T01:12:28;18.90;;;15.10;;
47251;SDS011;32991;51.374;11.586;2023-05-06T01:14:58;18.33;;;14.93;;
47251;SDS011;32991;51.374;11.586;2023-05-06T01:17:32;22.08;;;15.80;;
47251;SDS011;32991;51.374;11.586;2023-05-06T01:20:00;17.70;;;15.25;;
47251;SDS011;32991;51.374;11.586;2023-05-06T01:22:27;18.10;;;15.43;;
47251;SDS011;32991;51.374;11.586;2023-05-06T01:24:54;21.05;;;15.95;;
47251;SDS011;32991;51.374;11.586;2023-05-06T01:27:21;18.02;;;15.68;;
47251;SDS011;32991;51.374;11.586;2023-05-06T01:29:48;18.35;;;15.57;;
47251;SDS011;32991;51.374;11.586;2023-05-06T01:37:45;19.15;;;15.43;;
47251;SDS011;32991;51.374;11.586;2023-05-06T01:40:17;16.77;;;14.90;;
47251;SDS011;32991;51.374;11.586;2023-05-06T01:42:46;20.20;;;14.90;;
47251;SDS011;32991;51.374;11.586;2023-05-06T01:45:14;16.67;;;14.82;;
47251;SDS011;32991;51.374;11.586;2023-05-06T01:47:43;17.52;;;15.65;;
47251;SDS011;32991;51.374;11.586;2023-05-06T01:50:10;16.13;;;14.38;;
47251;SDS011;32991;51.374;11.586;2023-05-06T01:52:37;18.75;;;14.55;;
47251;SDS011;32991;51.374;11.586;2023-05-06T01:55:04;16.25;;;14.63;;
47251;SDS011;32991;51.374;11.586;2023-05-06T01:57:31;16.80;;;14.75;;
47251;SDS011;32991;51.374;11.586;2023-05-06T01:59:58;18.08;;;15.45;;
47251;SDS011;32991;51.374;11.586;2023-05-06T02:02:24;17.08;;;14.98;;
47251;SDS011;32991;51.374;11.586;2023-05-06T02:04:51;18.05;;;14.88;;
47251;SDS011;32991;51.374;11.586;2023-05-06T02:07:18;19.80;;;14.05;;
47251;SDS011;32991;51.374;11.586;2023-05-06T02:09:44;15.05;;;13.55;;
47251;SDS011;32991;51.374;11.586;2023-05-06T02:12:11;18.45;;;14.65;;
47251;SDS011;32991;51.374;11.586;2023-05-06T02:14:37;18.38;;;14.10;;
47251;SDS011;32991;51.374;11.586;2023-05-06T02:17:04;16.40;;;14.65;;
47251;SDS011;32991;51.374;11.586;2023-05-06T02:19:31;16.20;;;14.57;;
47251;SDS011;32991;51.374;11.586;2023-05-06T02:21:57;15.82;;;14.20;;
47251;SDS011;32991;51.374;11.586;2023-05-06T02:24:24;18.52;;;15.00;;
47251;SDS011;32991;51.374;11.586;2023-05-06T02:26:52;17.73;;;13.85;;
47251;SDS011;32991;51.374;11.586;2023-05-06T02:29:18;16.65;;;14.15;;
47251;SDS011;32991;51.374;11.586;2023-05-06T02:31:44;16.25;;;13.52;;
47251;SDS011;32991;51.374;11.586;2023-05-06T02:34:14;15.07;;;13.45;;
47251;SDS011;32991;51.374;11.586;2023-05-06T02:36:41;15.45;;;13.40;;
47251;SDS011;32991;51.374;11.586;2023-05-06T02:39:08;18.40;;;13.63;;
47251;SDS011;32991;51.374;11.586;2023-05-06T02:41:34;15.18;;;13.40;;
47251;SDS011;32991;51.374;11.586;2023-05-06T02:44:01;18.73;;;13.90;;
47251;SDS011;32991;51.374;11.586;2023-05-06T02:46:29;20.00;;;14.10;;
47251;SDS011;32991;51.374;11.586;2023-05-06T02:48:56;18.30;;;13.40;;
47251;SDS011;32991;51.374;11.586;2023-05-06T02:51:22;15.75;;;13.93;;
47251;SDS011;32991;51.374;11.586;2023-05-06T02:53:49;17.63;;;13.90;;
47251;SDS011;32991;51.374;11.586;2023-05-06T02:56:15;17.10;;;14.55;;
47251;SDS011;32991;51.374;11.586;2023-05-06T02:58:42;16.85;;;15.02;;
47251;SDS011;32991;51.374;11.586;2023-05-06T03:01:08;18.15;;;14.50;;
47251;SDS011;32991;51.374;11.586;2023-05-06T03:03:35;18.65;;;15.27;;
47251;SDS011;32991;51.374;11.586;2023-05-06T03:06:02;18.75;;;14.75;;
47251;SDS011;32991;51.374;11.586;2023-05-06T03:08:29;20.35;;;15.32;;
47251;SDS011;32991;51.374;11.586;2023-05-06T03:10:55;20.27;;;15.73;;
47251;SDS011;32991;51.374;11.586;2023-05-06T03:13:22;18.65;;;16.05;;
47251;SDS011;32991;51.374;11.586;2023-05-06T03:15:52;21.17;;;17.27;;
47251;SDS011;32991;51.374;11.586;2023-05-06T03:18:19;20.60;;;16.90;;
47251;SDS011;32991;51.374;11.586;2023-05-06T03:20:49;21.23;;;17.75;;
47251;SDS011;32991;51.374;11.586;2023-05-06T03:23:16;20.58;;;17.05;;
47251;SDS011;32991;51.374;11.586;2023-05-06T03:25:43;19.48;;;17.30;;
47251;SDS011;32991;51.374;11.586;2023-05-06T03:28:10;21.30;;;17.40;;
47251;SDS011;32991;51.374;11.586;2023-05-06T03:30:38;19.88;;;17.23;;
47251;SDS011;32991;51.374;11.586;2023-05-06T03:33:06;22.58;;;18.95;;
47251;SDS011;32991;51.374;11.586;2023-05-06T03:35:33;21.77;;;19.45;;
47251;SDS011;32991;51.374;11.586;2023-05-06T03:38:00;22.23;;;19.23;;
47251;SDS011;32991;51.374;11.586;2023-05-06T03:40:38;21.98;;;19.05;;
47251;SDS011;32991;51.374;11.586;2023-05-06T03:43:05;24.10;;;19.38;;
47251;SDS011;32991;51.374;11.586;2023-05-06T03:45:32;23.42;;;19.88;;
47251;SDS011;32991;51.374;11.586;2023-05-06T03:48:02;22.40;;;19.77;;
47251;SDS011;32991;51.374;11.586;2023-05-06T03:50:31;23.83;;;20.80;;
47251;SDS011;32991;51.374;11.586;2023-05-06T03:52:57;25.02;;;20.83;;
47251;SDS011;32991;51.374;11.586;2023-05-06T03:55:26;23.55;;;20.75;;
47251;SDS011;32991;51.374;11.586;2023-05-06T03:57:53;26.55;;;22.98;;
47251;SDS011;32991;51.374;11.586;2023-05-06T04:00:20;27.65;;;23.40;;
47251;SDS011;32991;51.374;11.586;2023-05-06T04:02:51;35.03;;;25.00;;
47251;SDS011;32991;51.374;11.586;2023-05-06T04:05:23;31.02;;;25.35;;
47251;SDS011;32991;51.374;11.586;2023-05-06T04:07:50;34.53;;;25.60;;
47251;SDS011;32991;51.374;11.586;2023-05-06T04:10:17;32.40;;;25.15;;
47251;SDS011;32991;51.374;11.586;2023-05-06T04:12:47;34.45;;;25.60;;
47251;SDS011;32991;51.374;11.586;2023-05-06T04:15:19;32.70;;;24.88;;
47251;SDS011;32991;51.374;11.586;2023-05-06T04:17:46;30.98;;;24.45;;
47251;SDS011;32991;51.374;11.586;2023-05-06T04:20:13;30.88;;;24.05;;
47251;SDS011;32991;51.374;11.586;2023-05-06T04:22:41;30.63;;;24.15;;
47251;SDS011;32991;51.374;11.586;2023-05-06T04:25:07;30.77;;;23.17;;
47251;SDS011;32991;51.374;11.586;2023-05-06T04:27:36;29.17;;;22.90;;
47251;SDS011;32991;51.374;11.586;2023-05-06T04:30:05;27.88;;;21.90;;
47251;SDS011;32991;51.374;11.586;2023-05-06T04:32:32;27.60;;;22.30;;
47251;SDS011;32991;51.374;11.586;2023-05-06T04:35:01;25.80;;;20.85;;
47251;SDS011;32991;51.374;11.586;2023-05-06T04:37:28;24.80;;;20.52;;
47251;SDS011;32991;51.374;11.586;2023-05-06T04:40:07;26.40;;;21.08;;
47251;SDS011;32991;51.374;11.586;2023-05-06T04:42:36;25.38;;;20.77;;
47251;SDS011;32991;51.374;11.586;2023-05-06T04:45:09;20.17;;;17.63;;
47251;SDS011;32991;51.374;11.586;2023-05-06T04:47:39;20.70;;;18.02;;
47251;SDS011;32991;51.374;11.586;2023-05-06T04:50:06;23.30;;;18.85;;
47251;SDS011;32991;51.374;11.586;2023-05-06T04:52:34;21.52;;;17.38;;
47251;SDS011;32991;51.374;11.586;2023-05-06T04:55:01;19.45;;;16.65;;
47251;SDS011;32991;51.374;11.586;2023-05-06T04:57:30;18.52;;;16.02;;
47251;SDS011;32991;51.374;11.586;2023-05-06T04:59:57;17.83;;;15.88;;
47251;SDS011;32991;51.374;11.586;2023-05-06T05:02:25;19.50;;;16.40;;
47251;SDS011;32991;51.374;11.586;2023-05-06T05:04:51;18.05;;;16.10;;
47251;SDS011;32991;51.374;11.586;2023-05-06T05:07:18;23.70;;;16.52;;
47251;SDS011;32991;51.374;11.586;2023-05-06T05:09:46;18.25;;;15.82;;
47251;SDS011;32991;51.374;11.586;2023-05-06T05:12:12;17.77;;;15.32;;
47251;SDS011;32991;51.374;11.586;2023-05-06T05:14:43;18.85;;;14.98;;
47251;SDS011;32991;51.374;11.586;2023-05-06T05:17:11;19.80;;;15.90;;
47251;SDS011;32991;51.374;11.586;2023-05-06T05:19:39;17.15;;;15.02;;
47251;SDS011;32991;51.374;11.586;2023-05-06T05:22:06;17.80;;;15.05;;
47251;SDS011;32991;51.374;11.586;2023-05-06T05:24:33;15.45;;;13.85;;
47251;SDS011;32991;51.374;11.586;2023-05-06T05:26:59;15.68;;;13.98;;
47251;SDS011;32991;51.374;11.586;2023-05-06T05:29:27;15.40;;;13.80;;
47251;SDS011;32991;51.374;11.586;2023-05-06T05:31:54;14.73;;;13.07;;
47251;SDS011;32991;51.374;11.586;2023-05-06T05:34:21;16.63;;;13.73;;
47251;SDS011;32991;51.374;11.586;2023-05-06T05:36:49;16.38;;;14.20;;
47251;SDS011;32991;51.374;11.586;2023-05-06T05:39:16;14.25;;;12.77;;
47251;SDS011;32991;51.374;11.586;2023-05-06T05:41:45;13.48;;;12.07;;
47251;SDS011;32991;51.374;11.586;2023-05-06T05:44:11;14.88;;;12.57;;
47251;SDS011;32991;51.374;11.586;2023-05-06T05:46:38;15.15;;;12.13;;
47251;SDS011;32991;51.374;11.586;2023-05-06T05:49:07;13.63;;;12.23;;
47251;SDS011;32991;51.374;11.586;2023-05-06T05:51:34;15.85;;;12.27;;
47251;SDS011;32991;51.374;11.586;2023-05-06T05:54:03;13.80;;;11.95;;
47251;SDS011;32991;51.374;11.586;2023-05-06T05:56:30;12.95;;;11.65;;
47251;SDS011;32991;51.374;11.586;2023-05-06T05:58:57;12.38;;;11.07;;
47251;SDS011;32991;51.374;11.586;2023-05-06T06:01:24;13.13;;;11.00;;
47251;SDS011;32991;51.374;11.586;2023-05-06T06:03:50;12.38;;;11.07;;
47251;SDS011;32991;51.374;11.586;2023-05-06T06:06:21;13.40;;;11.10;;
47251;SDS011;32991;51.374;11.586;2023-05-06T06:08:50;13.10;;;10.98;;
47251;SDS011;32991;51.374;11.586;2023-05-06T06:11:17;12.00;;;10.77;;
47251;SDS011;32991;51.374;11.586;2023-05-06T06:13:44;12.30;;;11.10;;
47251;SDS011;32991;51.374;11.586;2023-05-06T06:16:11;10.45;;;9.40;;
47251;SDS011;32991;51.374;11.586;2023-05-06T06:18:38;10.57;;;9.57;;
47251;SDS011;32991;51.374;11.586;2023-05-06T06:21:04;10.27;;;9.27;;
47251;SDS011;32991;51.374;11.586;2023-05-06T06:23:31;10.18;;;8.93;;
47251;SDS011;32991;51.374;11.586;2023-05-06T06:25:58;10.68;;;8.30;;
47251;SDS011;32991;51.374;11.586;2023-05-06T06:28:24;8.98;;;8.07;;
47251;SDS011;32991;51.374;11.586;2023-05-06T06:30:51;8.15;;;7.32;;
47251;SDS011;32991;51.374;11.586;2023-05-06T06:33:18;9.15;;;8.05;;
47251;SDS011;32991;51.374;11.586;2023-05-06T06:35:44;7.13;;;6.18;;
47251;SDS011;32991;51.374;11.586;2023-05-06T06:38:11;5.20;;;4.70;;
47251;SDS011;32991;51.374;11.586;2023-05-06T06:40:37;6.53;;;5.05;;
47251;SDS011;32991;51.374;11.586;2023-05-06T06:43:04;5.53;;;5.03;;
47251;SDS011;32991;51.374;11.586;2023-05-06T06:45:54;6.45;;;5.38;;
47251;SDS011;32991;51.374;11.586;2023-05-06T06:48:21;4.07;;;3.78;;
47251;SDS011;32991;51.374;11.586;2023-05-06T06:50:48;4.65;;;4.22;;
47251;SDS011;32991;51.374;11.586;2023-05-06T06:53:14;4.90;;;4.40;;
47251;SDS011;32991;51.374;11.586;2023-05-06T06:55:41;4.60;;;4.20;;
47251;SDS011;32991;51.374;11.586;2023-05-06T06:58:09;5.28;;;4.78;;
47251;SDS011;32991;51.374;11.586;2023-05-06T07:00:36;5.35;;;4.68;;
47251;SDS011;32991;51.374;11.586;2023-05-06T07:03:02;4.68;;;3.97;;
47251;SDS011;32991;51.374;11.586;2023-05-06T07:05:29;4.85;;;3.78;;
47251;SDS011;32991;51.374;11.586;2023-05-06T07:07:55;4.90;;;4.40;;
47251;SDS011;32991;51.374;11.586;2023-05-06T07:10:22;5.72;;;4.63;;
47251;SDS011;32991;51.374;11.586;2023-05-06T07:12:48;4.68;;;4.28;;
47251;SDS011;32991;51.374;11.586;2023-05-06T07:15:15;4.78;;;4.15;;
47251;SDS011;32991;51.374;11.586;2023-05-06T07:17:41;8.50;;;4.30;;
47251;SDS011;32991;51.374;11.586;2023-05-06T07:20:09;4.72;;;4.32;;
47251;SDS011;32991;51.374;11.586;2023-05-06T07:22:36;5.03;;;4.22;;
47251;SDS011;32991;51.374;11.586;2023-05-06T07:25:04;4.85;;;4.32;;
47251;SDS011;32991;51.374;11.586;2023-05-06T07:27:31;5.30;;;4.80;;
47251;SDS011;32991;51.374;11.586;2023-05-06T07:29:58;5.32;;;4.53;;
47251;SDS011;32991;51.374;11.586;2023-05-06T07:32:24;4.30;;;3.90;;
47251;SDS011;32991;51.374;11.586;2023-05-06T07:34:51;3.47;;;3.00;;
47251;SDS011;32991;51.374;11.586;2023-05-06T07:37:17;4.97;;;3.10;;
47251;SDS011;32991;51.374;11.586;2023-05-06T07:39:44;3.95;;;2.83;;
47251;SDS011;32991;51.374;11.586;2023-05-06T07:42:11;4.00;;;3.28;;
47251;SDS011;32991;51.374;11.586;2023-05-06T07:44:38;3.65;;;3.30;;
47251;SDS011;32991;51.374;11.586;2023-05-06T07:47:05;3.90;;;3.55;;
47251;SDS011;32991;51.374;11.586;2023-05-06T07:49:32;3.47;;;3.17;;
47251;SDS011;32991;51.374;11.586;2023-05-06T07:52:00;4.13;;;3.70;;
47251;SDS011;32991;51.374;11.586;2023-05-06T07:54:26;5.30;;;4.00;;
47251;SDS011;32991;51.374;11.586;2023-05-06T07:56:53;5.03;;;4.45;;
47251;SDS011;32991;51.374;11.586;2023-05-06T07:59:20;4.55;;;4.13;;
47251;SDS011;32991;51.374;11.586;2023-05-06T08:01:47;5.18;;;4.55;;
47251;SDS011;32991;51.374;11.586;2023-05-06T08:04:14;4.38;;;3.97;;
47251;SDS011;32991;51.374;11.586;2023-05-06T08:06:40;5.05;;;4.65;;
47251;SDS011;32991;51.374;11.586;2023-05-06T08:09:07;5.95;;;5.40;;
47251;SDS011;32991;51.374;11.586;2023-05-06T08:11:34;5.32;;;4.78;;
47251;SDS011;32991;51.374;11.586;2023-05-06T08:14:01;7.13;;;5.82;;
47251;SDS011;32991;51.374;11.586;2023-05-06T08:16:27;7.70;;;5.93;;
47251;SDS011;32991;51.374;11.586;2023-05-06T08:18:54;6.47;;;5.85;;
47251;SDS011;32991;51.374;11.586;2023-05-06T08:21:20;8.18;;;7.32;;
47251;SDS011;32991;51.374;11.586;2023-05-06T08:23:47;8.35;;;7.55;;
47251;SDS011;32991;51.374;11.586;2023-05-06T08:26:13;7.47;;;6.78;;
47251;SDS011;32991;51.374;11.586;2023-05-06T08:28:40;8.70;;;6.57;;
47251;SDS011;32991;51.374;11.586;2023-05-06T08:31:06;7.63;;;6.65;;
47251;SDS011;32991;51.374;11.586;2023-05-06T08:33:32;8.25;;;6.55;;
47251;SDS011;32991;51.374;11.586;2023-05-06T08:35:59;7.10;;;6.40;;
47251;SDS011;32991;51.374;11.586;2023-05-06T08:38:26;6.78;;;6.15;;
47251;SDS011;32991;51.374;11.586;2023-05-06T08:40:52;6.82;;;6.22;;
47251;SDS011;32991;51.374;11.586;2023-05-06T08:43:20;6.10;;;5.60;;
47251;SDS011;32991;51.374;11.586;2023-05-06T08:45:47;6.65;;;6.05;;
47251;SDS011;32991;51.374;11.586;2023-05-06T08:48:14;8.70;;;6.45;;
47251;SDS011;32991;51.374;11.586;2023-05-06T08:50:41;7.32;;;6.72;;
47251;SDS011;32991;51.374;11.586;2023-05-06T08:53:12;6.82;;;6.22;;
47251;SDS011;32991;51.374;11.586;2023-05-06T08:55:39;8.02;;;6.47;;
47251;SDS011;32991;51.374;11.586;2023-05-06T08:58:07;6.47;;;5.88;;
47251;SDS011;32991;51.374;11.586;2023-05-06T09:00:34;6.38;;;5.88;;
47251;SDS011;32991;51.374;11.586;2023-05-06T09:03:00;5.97;;;5.10;;
47251;SDS011;32991;51.374;11.586;2023-05-06T09:05:27;5.78;;;5.18;;
47251;SDS011;32991;51.374;11.586;2023-05-06T09:07:54;6.05;;;5.45;;
47251;SDS011;32991;51.374;11.586;2023-05-06T09:10:20;5.68;;;5.18;;
47251;SDS011;32991;51.374;11.586;2023-05-06T09:12:47;4.75;;;4.35;;
47251;SDS011;32991;51.374;11.586;2023-05-06T09:15:14;5.82;;;4.30;;
47251;SDS011;32991;51.374;11.586;2023-05-06T09:17:40;4.50;;;4.07;;
47251;SDS011;32991;51.374;11.586;2023-05-06T09:20:10;4.20;;;3.90;;
47251;SDS011;32991;51.374;11.586;2023-05-06T09:22:37;4.50;;;4.10;;
47251;SDS011;32991;51.374;11.586;2023-05-06T09:25:05;3.92;;;3.63;;
47251;SDS011;32991;51.374;11.586;2023-05-06T09:27:33;4.38;;;3.78;;
47251;SDS011;32991;51.374;11.586;2023-05-06T09:30:06;4.38;;;4.07;;
47251;SDS011;32991;51.374;11.586;2023-05-06T09:32:34;4.57;;;3.50;;
47251;SDS011;32991;51.374;11.586;2023-05-06T09:35:05;3.20;;;2.95;;
47251;SDS011;32991;51.374;11.586;2023-05-06T09:37:32;4.22;;;3.55;;
47251;SDS011;32991;51.374;11.586;2023-05-06T09:39:59;3.80;;;3.50;;
47251;SDS011;32991;51.374;11.586;2023-05-06T09:42:29;3.13;;;2.92;;
47251;SDS011;32991;51.374;11.586;2023-05-06T09:44:57;3.92;;;2.80;;
47251;SDS011;32991;51.374;11.586;2023-05-06T09:47:31;2.30;;;2.13;;
47251;SDS011;32991;51.374;11.586;2023-05-06T09:49:59;3.08;;;2.50;;
47251;SDS011;32991;51.374;11.586;2023-05-06T09:52:27;3.08;;;2.25;;
47251;SDS011;32991;51.374;11.586;2023-05-06T09:54:54;2.55;;;2.25;;
47251;SDS011;32991;51.374;11.586;2023-05-06T09:57:21;2.70;;;2.50;;
47251;SDS011;32991;51.374;11.586;2023-05-06T09:59:47;2.53;;;2.35;;
47251;SDS011;32991;51.374;11.586;2023-05-06T10:02:14;2.80;;;2.60;;
47251;SDS011;32991;51.374;11.586;2023-05-06T10:04:41;2.30;;;2.20;;
47251;SDS011;32991;51.374;11.586;2023-05-06T10:07:09;2.92;;;2.50;;
47251;SDS011;32991;51.374;11.586;2023-05-06T10:09:39;2.58;;;2.22;;
47251;SDS011;32991;51.374;11.586;2023-05-06T10:12:07;3.10;;;2.80;;
47251;SDS011;32991;51.374;11.586;2023-05-06T10:14:37;2.40;;;2.30;;
47251;SDS011;32991;51.374;11.586;2023-05-06T10:17:07;3.08;;;2.50;;
47251;SDS011;32991;51.374;11.586;2023-05-06T10:19:35;2.85;;;2.35;;
47251;SDS011;32991;51.374;11.586;2023-05-06T10:27:48;3.05;;;2.40;;
47251;SDS011;32991;51.374;11.586;2023-05-06T10:30:16;3.80;;;2.70;;
47251;SDS011;32991;51.374;11.586;2023-05-06T10:32:44;2.70;;;2.50;;
47251;SDS011;32991;51.374;11.586;2023-05-06T10:35:14;2.25;;;2.05;;
47251;SDS011;32991;51.374;11.586;2023-05-06T10:37:46;3.25;;;2.10;;
47251;SDS011;32991;51.374;11.586;2023-05-06T10:40:14;2.30;;;2.10;;
47251;SDS011;32991;51.374;11.586;2023-05-06T10:42:41;1.92;;;1.77;;
47251;SDS011;32991;51.374;11.586;2023-05-06T10:45:08;1.70;;;1.60;;
47251;SDS011;32991;51.374;11.586;2023-05-06T10:48:05;1.88;;;1.77;;
47251;SDS011;32991;51.374;11.586;2023-05-06T10:50:33;2.50;;;2.30;;
47251;SDS011;32991;51.374;11.586;2023-05-06T10:53:00;2.60;;;2.40;;
47251;SDS011;32991;51.374;11.586;2023-05-06T10:55:28;2.50;;;2.25;;
47251;SDS011;32991;51.374;11.586;2023-05-06T10:58:01;2.20;;;2.10;;
47251;SDS011;32991;51.374;11.586;2023-05-06T11:00:30;1.70;;;1.60;;
47251;SDS011;32991;51.374;11.586;2023-05-06T11:03:07;1.73;;;1.50;;
47251;SDS011;32991;51.374;11.586;2023-05-06T11:05:49;1.60;;;1.50;;
47251;SDS011;32991;51.374;11.586;2023-05-06T11:08:23;4.43;;;2.00;;
47251;SDS011;32991;51.374;11.586;2023-05-06T11:10:51;3.20;;;2.92;;
47251;SDS011;32991;51.374;11.586;2023-05-06T11:13:19;2.58;;;2.38;;
47251;SDS011;32991;51.374;11.586;2023-05-06T11:15:46;5.72;;;3.13;;
47251;SDS011;32991;51.374;11.586;2023-05-06T11:24:04;3.63;;;3.30;;
47251;SDS011;32991;51.374;11.586;2023-05-06T11:26:23;4.38;;;2.80;;
47251;SDS011;32991;51.374;11.586;2023-05-06T11:28:50;3.25;;;2.95;;
47251;SDS011;32991;51.374;11.586;2023-05-06T11:31:16;5.03;;;3.05;;
47251;SDS011;32991;51.374;11.586;2023-05-06T11:33:49;3.38;;;2.75;;
47251;SDS011;32991;51.374;11.586;2023-05-06T11:36:20;5.18;;;2.63;;
47251;SDS011;32991;51.374;11.586;2023-05-06T11:38:47;3.38;;;2.72;;
47251;SDS011;32991;51.374;11.586;2023-05-06T11:41:16;3.22;;;2.90;;
47251;SDS011;32991;51.374;11.586;2023-05-06T11:43:49;3.40;;;3.13;;
47251;SDS011;32991;51.374;11.586;2023-05-06T11:46:18;4.25;;;3.40;;
47251;SDS011;32991;51.374;11.586;2023-05-06T11:48:46;3.88;;;3.58;;
47251;SDS011;32991;51.374;11.586;2023-05-06T11:51:12;5.88;;;3.38;;
47251;SDS011;32991;51.374;11.586;2023-05-06T11:53:39;3.65;;;3.33;;
47251;SDS011;32991;51.374;11.586;2023-05-06T11:56:05;4.57;;;3.30;;
47251;SDS011;32991;51.374;11.586;2023-05-06T11:58:32;4.03;;;3.30;;
47251;SDS011;32991;51.374;11.586;2023-05-06T12:00:59;3.67;;;3.38;;
47251;SDS011;32991;51.374;11.586;2023-05-06T12:03:27;2.85;;;2.65;;
47251;SDS011;32991;51.374;11.586;2023-05-06T12:05:54;3.10;;;2.90;;
47251;SDS011;32991;51.374;11.586;2023-05-06T12:08:31;3.45;;;2.72;;
47251;SDS011;32991;51.374;11.586;2023-05-06T12:11:16;3.30;;;3.10;;
47251;SDS011;32991;51.374;11.586;2023-05-06T12:13:43;2.90;;;2.60;;
47251;SDS011;32991;51.374;11.586;2023-05-06T12:16:09;2.80;;;2.60;;
47251;SDS011;32991;51.374;11.586;2023-05-06T12:18:37;3.00;;;2.70;;
47251;SDS011;32991;51.374;11.586;2023-05-06T12:21:04;2.70;;;2.50;;
47251;SDS011;32991;51.374;11.586;2023-05-06T12:23:32;2.80;;;2.60;;
47251;SDS011;32991;51.374;11.586;2023-05-06T12:25:59;2.92;;;2.67;;
47251;SDS011;32991;51.374;11.586;2023-05-06T12:28:28;3.17;;;2.58;;
47251;SDS011;32991;51.374;11.586;2023-05-06T12:30:56;3.10;;;2.90;;
47251;SDS011;32991;51.374;11.586;2023-05-06T12:33:22;3.17;;;2.58;;
47251;SDS011;32991;51.374;11.586;2023-05-06T12:35:49;3.00;;;2.70;;
47251;SDS011;32991;51.374;11.586;2023-05-06T12:38:17;2.30;;;2.20;;
47251;SDS011;32991;51.374;11.586;2023-05-06T12:40:44;3.03;;;2.83;;
47251;SDS011;32991;51.374;11.586;2023-05-06T12:43:12;3.00;;;2.70;;
47251;SDS011;32991;51.374;11.586;2023-05-06T12:45:39;3.97;;;2.20;;
47251;SDS011;32991;51.374;11.586;2023-05-06T12:48:06;2.33;;;2.20;;
47251;SDS011;32991;51.374;11.586;2023-05-06T12:50:39;2.30;;;2.10;;
47251;SDS011;32991;51.374;11.586;2023-05-06T12:53:08;2.30;;;2.10;;
47251;SDS011;32991;51.374;11.586;2023-05-06T12:55:36;2.85;;;2.50;;
47251;SDS011;32991;51.374;11.586;2023-05-06T12:58:13;2.47;;;2.28;;
47251;SDS011;32991;51.374;11.586;2023-05-06T13:00:40;3.05;;;2.55;;
47251;SDS011;32991;51.374;11.586;2023-05-06T13:03:07;2.53;;;2.33;;
47251;SDS011;32991;51.374;11.586;2023-05-06T13:05:34;2.40;;;2.20;;
47251;SDS011;32991;51.374;11.586;2023-05-06T13:08:02;2.45;;;2.25;;
47251;SDS011;32991;51.374;11.586;2023-05-06T13:10:29;2.25;;;2.15;;
47251;SDS011;32991;51.374;11.586;2023-05-06T13:12:56;1.92;;;1.75;;
47251;SDS011;32991;51.374;11.586;2023-05-06T13:15:22;2.33;;;2.13;;
47251;SDS011;32991;51.374;11.586;2023-05-06T13:17:49;2.20;;;2.00;;
47251;SDS011;32991;51.374;11.586;2023-05-06T13:20:16;2.40;;;2.20;;
47251;SDS011;32991;51.374;11.586;2023-05-06T13:22:43;2.10;;;2.00;;
47251;SDS011;32991;51.374;11.586;2023-05-06T13:25:20;1.83;;;1.73;;
47251;SDS011;32991;51.374;11.586;2023-05-06T13:27:47;2.35;;;1.80;;
47251;SDS011;32991;51.374;11.586;2023-05-06T13:30:13;2.03;;;1.80;;
47251;SDS011;32991;51.374;11.586;2023-05-06T13:32:40;2.75;;;1.50;;
47251;SDS011;32991;51.374;11.586;2023-05-06T13:35:06;1.60;;;1.50;;
47251;SDS011;32991;51.374;11.586;2023-05-06T13:37:33;1.50;;;1.40;;
47251;SDS011;32991;51.374;11.586;2023-05-06T13:40:00;2.03;;;1.40;;
47251;SDS011;32991;51.374;11.586;2023-05-06T13:42:26;1.83;;;1.50;;
47251;SDS011;32991;51.374;11.586;2023-05-06T13:44:53;2.00;;;1.90;;
47251;SDS011;32991;51.374;11.586;2023-05-06T13:47:19;2.03;;;1.77;;
47251;SDS011;32991;51.374;11.586;2023-05-06T13:49:46;2.10;;;2.00;;
47251;SDS011;32991;51.374;11.586;2023-05-06T13:52:12;3.78;;;2.00;;
47251;SDS011;32991;51.374;11.586;2023-05-06T13:54:39;2.10;;;1.90;;
47251;SDS011;32991;51.374;11.586;2023-05-06T13:57:05;2.13;;;1.92;;
47251;SDS011;32991;51.374;11.586;2023-05-06T13:59:32;2.15;;;1.95;;
47251;SDS011;32991;51.374;11.586;2023-05-06T14:01:59;1.85;;;1.67;;
47251;SDS011;32991;51.374;11.586;2023-05-06T14:04:26;2.65;;;2.03;;
47251;SDS011;32991;51.374;11.586;2023-05-06T14:06:52;3.42;;;1.90;;
47251;SDS011;32991;51.374;11.586;2023-05-06T14:09:20;2.50;;;2.30;;
47251;SDS011;32991;51.374;11.586;2023-05-06T14:11:46;2.60;;;2.13;;
47251;SDS011;32991;51.374;11.586;2023-05-06T14:14:13;2.50;;;2.30;;
47251;SDS011;32991;51.374;11.586;2023-05-06T14:16:40;2.20;;;2.00;;
47251;SDS011;32991;51.374;11.586;2023-05-06T14:19:07;2.38;;;1.95;;
47251;SDS011;32991;51.374;11.586;2023-05-06T14:21:33;2.10;;;2.00;;
47251;SDS011;32991;51.374;11.586;2023-05-06T14:24:00;2.20;;;2.08;;
47251;SDS011;32991;51.374;11.586;2023-05-06T14:26:26;2.70;;;2.50;;
47251;SDS011;32991;51.374;11.586;2023-05-06T14:28:53;3.55;;;2.75;;
47251;SDS011;32991;51.374;11.586;2023-05-06T14:31:19;2.90;;;2.60;;
47251;SDS011;32991;51.374;11.586;2023-05-06T14:33:46;4.90;;;4.50;;
47251;SDS011;32991;51.374;11.586;2023-05-06T14:36:16;5.85;;;4.78;;
47251;SDS011;32991;51.374;11.586;2023-05-06T14:38:43;4.78;;;4.38;;
47251;SDS011;32991;51.374;11.586;2023-05-06T14:41:10;6.07;;;5.53;;
47251;SDS011;32991;51.374;11.586;2023-05-06T14:43:36;6.18;;;5.47;;